createdAt,value
2022-08-19T00:02:00.327Z,101250.31
2022-08-19T00:04:33.826Z,101246.25
2022-08-19T00:07:04.977Z,101250.53
2022-08-19T00:09:33.564Z,101244.16
2022-08-19T00:12:02.631Z,101242.34
2022-08-19T00:14:32.615Z,101242.34
2022-08-19T00:17:03.412Z,101246.69
2022-08-19T00:19:33.427Z,101238.09
2022-08-19T00:22:03.409Z,101247.91
2022-08-19T00:24:31.855Z,101233.81
2022-08-19T00:27:25.927Z,101252.06
2022-08-19T00:29:52.562Z,101254.91
2022-08-19T00:32:21.850Z,101253.16
2022-08-19T00:34:54.257Z,101257.28
2022-08-19T00:37:24.461Z,101232.59
2022-08-19T00:39:53.208Z,101263.44
2022-08-19T00:42:23.245Z,101254.47
2022-08-19T00:44:54.694Z,101256.91
2022-08-19T00:47:23.099Z,101247.50
2022-08-19T00:49:56.269Z,101249.97
2022-08-19T00:52:30.875Z,101254.94
2022-08-19T00:55:02.049Z,101249.16
2022-08-19T00:57:36.412Z,101229.72
2022-08-19T01:00:12.234Z,101255.19
2022-08-19T01:02:43.980Z,101250.88
2022-08-19T01:05:21.673Z,101256.97
2022-08-19T01:07:51.853Z,101256.28
2022-08-19T01:10:27.536Z,101267.69
2022-08-19T01:12:58.063Z,101257.22
2022-08-19T01:15:32.753Z,101154.00
2022-08-19T01:18:07.412Z,101265.63
2022-08-19T01:20:37.443Z,101266.19
2022-08-19T01:23:07.261Z,101272.22
2022-08-19T01:25:48.183Z,101270.16
2022-08-19T01:28:33.729Z,101259.25
2022-08-19T01:31:08.062Z,101239.69
2022-08-19T01:33:36.803Z,101254.22
2022-08-19T01:36:12.078Z,101250.31
2022-08-19T01:38:47.234Z,101226.28
2022-08-19T01:41:15.996Z,101259.78
2022-08-19T01:44:13.954Z,101265.91
2022-08-19T01:46:33.878Z,101265.41
2022-08-19T01:49:04.688Z,101278.06
2022-08-19T01:51:39.834Z,101264.53
2022-08-19T01:54:14.267Z,101271.78
2022-08-19T01:56:52.487Z,101239.81
2022-08-19T01:59:24.292Z,101233.13
2022-08-19T02:01:54.140Z,101245.06
2022-08-19T02:04:24.306Z,101256.28
2022-08-19T02:06:52.650Z,101202.41
2022-08-19T02:09:22.330Z,101250.28
2022-08-19T02:11:50.710Z,101249.91
2022-08-19T02:14:19.396Z,101259.69
2022-08-19T02:16:47.724Z,101260.44
2022-08-19T02:19:16.050Z,101271.09
2022-08-19T02:21:44.546Z,101265.63
2022-08-19T02:24:13.229Z,101253.03
2022-08-19T02:26:42.882Z,101251.91
2022-08-19T02:29:11.940Z,101252.88
2022-08-19T02:31:40.473Z,101258.41
2022-08-19T02:34:08.762Z,101253.16
2022-08-19T02:36:37.123Z,101238.75
2022-08-19T02:39:11.735Z,101243.19
2022-08-19T02:41:40.126Z,101256.66
2022-08-19T02:44:30.664Z,101255.81
2022-08-19T02:46:58.249Z,101242.34
2022-08-19T02:49:26.526Z,101243.06
2022-08-19T02:51:56.431Z,101238.34
2022-08-19T02:54:26.534Z,101227.19
2022-08-19T02:56:57.834Z,101230.78
2022-08-19T02:59:27.729Z,101232.59
2022-08-19T03:01:56.066Z,101233.41
2022-08-19T03:04:25.312Z,101224.47
2022-08-19T03:06:59.577Z,101225.38
2022-08-19T03:09:31.332Z,101223.50
2022-08-19T03:12:01.083Z,101223.31
2022-08-19T03:14:32.994Z,101227.81
2022-08-19T03:17:01.783Z,101221.47
2022-08-19T03:19:30.449Z,101225.91
2022-08-19T03:21:58.802Z,101225.91
2022-08-19T03:24:27.357Z,101229.50
2022-08-19T03:26:58.281Z,101199.69
2022-08-19T03:29:30.740Z,101221.53
2022-08-19T03:32:04.866Z,101222.56
2022-08-19T03:34:36.184Z,101218.03
2022-08-19T03:37:08.091Z,101218.13
2022-08-19T03:39:39.186Z,101218.19
2022-08-19T03:42:32.841Z,101195.47
2022-08-19T03:44:56.781Z,101214.03
2022-08-19T03:47:26.575Z,101223.59
2022-08-19T03:49:54.867Z,101229.13
2022-08-19T03:52:23.149Z,101233.53
2022-08-19T03:54:51.471Z,101205.38
2022-08-19T03:57:19.809Z,101231.31
2022-08-19T03:59:48.089Z,101233.19
2022-08-19T04:02:16.408Z,101240.63
2022-08-19T04:04:46.365Z,101238.13
2022-08-19T04:07:17.327Z,101237.41
2022-08-19T04:09:46.418Z,101239.03
2022-08-19T04:12:15.865Z,101205.03
2022-08-19T04:14:44.143Z,101244.25
2022-08-19T04:17:14.975Z,101248.47
2022-08-19T04:19:45.473Z,101232.59
2022-08-19T04:22:13.845Z,101241.13
2022-08-19T04:24:42.065Z,101243.81
2022-08-19T04:27:10.456Z,101238.31
2022-08-19T04:29:40.517Z,101241.09
2022-08-19T04:32:10.124Z,101244.50
2022-08-19T04:35:01.305Z,101243.50
2022-08-19T04:37:34.860Z,101241.66
2022-08-19T04:40:25.249Z,101241.53
2022-08-19T04:42:54.554Z,101238.75
2022-08-19T04:45:23.440Z,101230.59
2022-08-19T04:47:58.340Z,101237.75
2022-08-19T04:50:29.091Z,101239.28
2022-08-19T04:52:58.829Z,101241.09
2022-08-19T04:55:27.551Z,101244.75
2022-08-19T04:57:56.695Z,101250.13
2022-08-19T05:00:25.486Z,101248.28
2022-08-19T05:02:54.014Z,101244.66
2022-08-19T05:05:22.489Z,101247.38
2022-08-19T05:07:50.858Z,101245.75
2022-08-19T05:10:21.505Z,101260.03
2022-08-19T05:12:49.805Z,101253.97
2022-08-19T05:15:20.315Z,101253.91
2022-08-19T05:18:02.547Z,101261.94
2022-08-19T05:20:48.588Z,101256.63
2022-08-19T05:23:22.029Z,101251.34
2022-08-19T05:25:53.828Z,101262.06
2022-08-19T05:28:22.694Z,101255.66
2022-08-19T05:30:51.882Z,101247.84
2022-08-19T05:33:20.768Z,101252.03
2022-08-19T05:35:50.470Z,101250.19
2022-08-19T05:38:20.210Z,101235.19
2022-08-19T05:40:50.271Z,101247.50
2022-08-19T05:43:19.915Z,101239.19
2022-08-19T05:45:48.206Z,101240.00
2022-08-19T05:48:18.385Z,101232.06
2022-08-19T05:50:47.427Z,101239.91
2022-08-19T05:53:17.303Z,101246.91
2022-08-19T05:55:45.786Z,101240.97
2022-08-19T05:58:14.231Z,101247.88
2022-08-19T06:00:46.476Z,101247.81
2022-08-19T06:03:14.841Z,101259.38
2022-08-19T06:05:51.716Z,101257.56
2022-08-19T06:08:34.537Z,101256.78
2022-08-19T06:11:21.404Z,101256.81
2022-08-19T06:13:59.778Z,101243.28
2022-08-19T06:16:32.670Z,101223.91
2022-08-19T06:19:03.752Z,101247.88
2022-08-19T06:21:33.146Z,101248.44
2022-08-19T06:24:02.041Z,101252.91
2022-08-19T06:26:30.518Z,101246.28
2022-08-19T06:28:59.366Z,101255.84
2022-08-19T06:31:32.256Z,101253.94
2022-08-19T06:34:00.775Z,101249.28
2022-08-19T06:36:40.987Z,101246.94
2022-08-19T06:39:14.117Z,101255.84
2022-08-19T06:41:51.519Z,101252.75
2022-08-19T06:44:22.305Z,101258.16
2022-08-19T06:46:55.426Z,101258.97
2022-08-19T06:49:26.038Z,101258.88
2022-08-19T06:51:54.241Z,101253.69
2022-08-19T06:54:30.621Z,101253.41
2022-08-19T06:57:03.382Z,101246.91
2022-08-19T06:59:34.126Z,101258.34
2022-08-19T07:02:08.029Z,101251.28
2022-08-19T07:04:39.407Z,101260.75
2022-08-19T07:07:19.887Z,101252.31
2022-08-19T07:09:58.205Z,101259.84
2022-08-19T07:12:30.623Z,101265.91
2022-08-19T07:15:00.121Z,101268.22
2022-08-19T07:17:31.124Z,101273.22
2022-08-19T07:20:06.803Z,101259.84
2022-08-19T07:22:35.817Z,101281.06
2022-08-19T07:25:06.120Z,101276.22
2022-08-19T07:27:34.899Z,101291.03
2022-08-19T07:30:04.086Z,101284.50
2022-08-19T07:32:33.919Z,101284.50
2022-08-19T07:35:04.231Z,101289.91
2022-08-19T07:37:33.502Z,101288.09
2022-08-19T07:40:02.258Z,101286.97
2022-08-19T07:42:31.598Z,101288.72
2022-08-19T07:45:00.591Z,101289.09
2022-08-19T07:47:48.255Z,101284.91
2022-08-19T07:50:21.374Z,101279.09
2022-08-19T07:52:51.464Z,101281.63
2022-08-19T07:55:41.132Z,101279.72
2022-08-19T07:58:12.591Z,101277.72
2022-08-19T08:00:40.977Z,101288.81
2022-08-19T08:03:09.660Z,101262.13
2022-08-19T08:05:56.855Z,101286.16
2022-08-19T08:08:44.234Z,101235.34
2022-08-19T08:11:20.063Z,101279.53
2022-08-19T08:14:01.159Z,101303.03
2022-08-19T08:16:39.673Z,101302.09
2022-08-19T08:19:20.362Z,101300.81
2022-08-19T08:21:56.774Z,101303.53
2022-08-19T08:24:28.336Z,101301.44
2022-08-19T08:26:58.654Z,101305.97
2022-08-19T08:29:34.538Z,101300.38
2022-08-19T08:32:13.976Z,101315.47
2022-08-19T08:34:43.642Z,101320.13
2022-08-19T08:37:13.303Z,101313.63
2022-08-19T08:39:44.532Z,101322.97
2022-08-19T08:42:19.434Z,101308.25
2022-08-19T08:45:00.917Z,101318.53
2022-08-19T08:47:42.107Z,101319.72
2022-08-19T08:50:16.420Z,101326.91
2022-08-19T08:52:50.448Z,101321.47
2022-08-19T08:55:23.504Z,101328.91
2022-08-19T08:57:59.659Z,101330.25
2022-08-19T09:00:32.526Z,101323.31
2022-08-19T09:03:02.479Z,101329.53
2022-08-19T09:05:48.211Z,101339.38
2022-08-19T09:08:29.952Z,101337.16
2022-08-19T09:10:59.406Z,101340.09
2022-08-19T09:13:37.502Z,101331.81
2022-08-19T09:16:12.650Z,101334.13
2022-08-19T09:18:44.245Z,101245.75
2022-08-19T09:21:13.068Z,101335.50
2022-08-19T09:23:44.322Z,101331.84
2022-08-19T09:26:16.353Z,101251.69
2022-08-19T09:28:48.680Z,101350.13
2022-08-19T09:31:20.582Z,101347.97
2022-08-19T09:33:50.229Z,101342.75
2022-08-19T09:36:34.910Z,101336.81
2022-08-19T09:39:16.437Z,101265.63
2022-08-19T09:41:47.313Z,101350.38
2022-08-19T09:44:15.981Z,101352.41
2022-08-19T09:46:44.311Z,101348.44
2022-08-19T09:49:12.779Z,101350.22
2022-08-19T09:51:41.884Z,101354.22
2022-08-19T09:54:11.808Z,101354.63
2022-08-19T09:56:40.163Z,101353.34
2022-08-19T09:59:11.250Z,101348.69
2022-08-19T10:01:40.246Z,101350.13
2022-08-19T10:04:19.666Z,101349.34
2022-08-19T10:06:53.413Z,101342.31
2022-08-19T10:09:26.220Z,101363.53
2022-08-19T10:12:03.099Z,101364.72
2022-08-19T10:14:31.695Z,101357.44
2022-08-19T10:17:01.318Z,101361.19
2022-08-19T10:19:41.936Z,101358.00
2022-08-19T10:22:25.773Z,101348.41
2022-08-19T10:24:56.135Z,101356.47
2022-08-19T10:27:26.321Z,101355.00
2022-08-19T10:29:55.104Z,101360.06
2022-08-19T10:32:33.019Z,101352.00
2022-08-19T10:35:03.000Z,101348.53
2022-08-19T10:37:34.587Z,101356.44
2022-08-19T10:40:07.905Z,101352.16
2022-08-19T10:42:37.126Z,101359.34
2022-08-19T10:45:07.827Z,101345.06
2022-08-19T10:47:36.250Z,101368.81
2022-08-19T10:50:28.632Z,101358.03
2022-08-19T10:52:57.279Z,101351.63
2022-08-19T10:55:44.626Z,101358.34
2022-08-19T10:58:14.747Z,101359.59
2022-08-19T11:00:44.486Z,101355.06
2022-08-19T11:03:12.918Z,101363.41
2022-08-19T11:05:41.938Z,101355.63
2022-08-19T11:08:23.447Z,101351.75
2022-08-19T11:11:01.643Z,101355.09
2022-08-19T11:13:30.543Z,101353.44
2022-08-19T11:16:06.586Z,101351.59
2022-08-19T11:18:38.358Z,101345.97
2022-08-19T11:21:19.967Z,101348.19
2022-08-19T11:23:50.222Z,101352.56
2022-08-19T11:26:21.165Z,101354.75
2022-08-19T11:28:52.197Z,101355.81
2022-08-19T11:31:24.893Z,101350.56
2022-08-19T11:34:00.677Z,101338.59
2022-08-19T11:36:29.570Z,101347.25
2022-08-19T11:38:57.921Z,101352.56
2022-08-19T11:41:28.429Z,101347.66
2022-08-19T11:43:56.936Z,101362.69
2022-08-19T11:46:30.326Z,101356.13
2022-08-19T11:48:59.988Z,101354.56
2022-08-19T11:51:29.948Z,101353.78
2022-08-19T11:54:00.426Z,101353.78
2022-08-19T11:56:30.713Z,101352.22
2022-08-19T11:58:59.601Z,101346.44
2022-08-19T12:01:29.218Z,101351.28
2022-08-19T12:03:59.001Z,101351.09
2022-08-19T12:06:33.513Z,101357.28
2022-08-19T12:09:06.611Z,101358.47
2022-08-19T12:11:37.857Z,101355.66
2022-08-19T12:14:06.588Z,101358.88
2022-08-19T12:16:37.810Z,101360.19
2022-08-19T12:19:09.802Z,101348.13
2022-08-19T12:21:39.743Z,101347.25
2022-08-19T12:24:09.312Z,101348.44
2022-08-19T12:26:53.549Z,101348.34
2022-08-19T12:29:23.846Z,101351.47
2022-08-19T12:31:52.853Z,101346.72
2022-08-19T12:34:21.810Z,101352.06
2022-08-19T12:36:50.500Z,101343.63
2022-08-19T12:39:19.201Z,101345.59
2022-08-19T12:41:54.528Z,101340.94
2022-08-19T12:44:29.437Z,101318.44
2022-08-19T12:47:01.522Z,101343.66
2022-08-19T12:49:54.712Z,101340.50
2022-08-19T12:52:23.868Z,101341.25
2022-08-19T12:54:54.026Z,101342.31
2022-08-19T12:57:32.038Z,101338.00
2022-08-19T13:00:07.119Z,101329.94
2022-08-19T13:02:38.344Z,101331.00
2022-08-19T13:05:11.979Z,101345.72
2022-08-19T13:07:42.421Z,101318.84
2022-08-19T13:10:12.825Z,101328.66
2022-08-19T13:12:43.024Z,101334.38
2022-08-19T13:15:12.967Z,101348.06
2022-08-19T13:17:44.195Z,101344.59
2022-08-19T13:20:13.652Z,101345.91
2022-08-19T13:22:41.918Z,101342.53
2022-08-19T13:25:11.596Z,101345.06
2022-08-19T13:27:42.364Z,101321.84
2022-08-19T13:30:31.628Z,101339.97
2022-08-19T13:33:16.457Z,101338.34
2022-08-19T13:35:49.059Z,101334.44
2022-08-19T13:38:21.417Z,101329.94
2022-08-19T13:40:52.455Z,101338.13
2022-08-19T13:43:24.447Z,101333.97
2022-08-19T13:45:57.393Z,101248.81
2022-08-19T13:48:28.339Z,101330.59
2022-08-19T13:50:56.953Z,101326.13
2022-08-19T13:53:25.597Z,101322.91
2022-08-19T13:55:54.656Z,101306.44
2022-08-19T13:58:24.770Z,101323.72
2022-08-19T14:00:53.392Z,101328.06
2022-08-19T14:03:21.867Z,101318.28
2022-08-19T14:05:50.210Z,101312.44
2022-08-19T14:08:19.239Z,101304.59
2022-08-19T14:10:49.368Z,101318.28
2022-08-19T14:13:20.523Z,101301.97
2022-08-19T14:15:50.808Z,101326.22
2022-08-19T14:18:20.709Z,101317.09
2022-08-19T14:20:49.087Z,101324.38
2022-08-19T14:23:17.365Z,101318.72
2022-08-19T14:25:47.410Z,101324.75
2022-08-19T14:28:15.748Z,101329.09
2022-08-19T14:30:45.483Z,101322.03
2022-08-19T14:33:15.204Z,101316.75
2022-08-19T14:35:45.950Z,101313.50
2022-08-19T14:38:22.054Z,101313.81
2022-08-19T14:41:14.857Z,101309.81
2022-08-19T14:43:43.355Z,101311.06
2022-08-19T14:46:13.562Z,101320.59
2022-08-19T14:48:43.371Z,101306.63
2022-08-19T14:51:12.100Z,101314.50
2022-08-19T14:53:40.645Z,101311.72
2022-08-19T14:56:15.483Z,101306.75
2022-08-19T14:58:45.617Z,101306.22
2022-08-19T15:01:15.187Z,101329.53
2022-08-19T15:03:44.912Z,101319.41
2022-08-19T15:06:13.442Z,101313.75
2022-08-19T15:08:45.879Z,101332.84
2022-08-19T15:11:22.116Z,101310.91
2022-08-19T15:13:58.736Z,101335.78
2022-08-19T15:16:29.226Z,101316.34
2022-08-19T15:19:01.731Z,101337.06
2022-08-19T15:21:31.792Z,101334.59
2022-08-19T15:24:01.821Z,101341.13
2022-08-19T15:26:33.179Z,101337.03
2022-08-19T15:29:02.781Z,101333.84
2022-08-19T15:31:38.764Z,101349.06
2022-08-19T15:34:08.949Z,101348.03
2022-08-19T15:36:38.061Z,101352.56
2022-08-19T15:39:07.397Z,101359.97
2022-08-19T15:41:37.135Z,101348.84
2022-08-19T15:44:10.092Z,101348.66
2022-08-19T15:46:40.780Z,101356.56
2022-08-19T15:49:10.919Z,101346.66
2022-08-19T15:51:41.870Z,101349.03
2022-08-19T15:54:13.912Z,101350.47
2022-08-19T15:57:02.105Z,101354.75
2022-08-19T15:59:48.321Z,101355.97
2022-08-19T16:02:38.936Z,101325.78
2022-08-19T16:05:37.576Z,101351.03
2022-08-19T16:08:06.714Z,101342.75
2022-08-19T16:10:35.030Z,101346.94
2022-08-19T16:13:03.637Z,101345.13
2022-08-19T16:15:33.730Z,101345.38
2022-08-19T16:18:04.346Z,101349.03
2022-08-19T16:20:35.895Z,101341.53
2022-08-19T16:23:05.647Z,101334.69
2022-08-19T16:25:33.925Z,101341.00
2022-08-19T16:28:06.329Z,101336.09
2022-08-19T16:30:38.582Z,101336.34
2022-08-19T16:33:07.620Z,101337.41
2022-08-19T16:35:37.871Z,101341.88
2022-08-19T16:38:07.029Z,101331.13
2022-08-19T16:40:36.406Z,101322.91
2022-08-19T16:43:05.032Z,101342.84
2022-08-19T16:45:34.062Z,101313.91
2022-08-19T16:48:03.868Z,101346.16
2022-08-19T16:50:48.847Z,101353.16
2022-08-19T16:53:22.906Z,101356.28
2022-08-19T16:55:53.248Z,101352.59
2022-08-19T16:58:28.537Z,101346.66
2022-08-19T17:01:03.225Z,101347.53
2022-08-19T17:03:36.315Z,101350.94
2022-08-19T17:06:19.012Z,101348.00
2022-08-19T17:08:52.545Z,101349.91
2022-08-19T17:11:21.650Z,101346.84
2022-08-19T17:13:50.833Z,101344.47
2022-08-19T17:16:22.020Z,101343.34
2022-08-19T17:18:52.694Z,101346.50
2022-08-19T17:21:21.517Z,101347.38
2022-08-19T17:23:51.280Z,101353.16
2022-08-19T17:26:20.123Z,101349.31
2022-08-19T17:28:51.046Z,101352.81
2022-08-19T17:31:23.129Z,101346.31
2022-08-19T17:33:53.236Z,101356.53
2022-08-19T17:36:26.211Z,101357.09
2022-08-19T17:38:57.357Z,101361.88
2022-08-19T17:41:27.203Z,101365.91
2022-08-19T17:43:56.272Z,101359.38
2022-08-19T17:46:24.723Z,101365.22
2022-08-19T17:48:57.618Z,101310.75
2022-08-19T17:51:42.135Z,101318.97
2022-08-19T17:54:15.319Z,101371.34
2022-08-19T17:56:45.253Z,101351.28
2022-08-19T17:59:14.499Z,101365.97
2022-08-19T18:01:53.681Z,101364.69
2022-08-19T18:04:24.811Z,101371.78
2022-08-19T18:06:55.003Z,101374.09
2022-08-19T18:09:41.787Z,101381.38
2022-08-19T18:12:13.363Z,101357.69
2022-08-19T18:14:42.890Z,101260.06
2022-08-19T18:17:17.202Z,101381.53
2022-08-19T18:19:47.248Z,101379.72
2022-08-19T18:22:26.710Z,101364.25
2022-08-19T18:24:59.184Z,101390.81
2022-08-19T18:27:28.724Z,101386.63
2022-08-19T18:29:59.464Z,101389.53
2022-08-19T18:32:31.468Z,101398.22
2022-08-19T18:35:02.024Z,101404.88
2022-08-19T18:37:30.136Z,101399.63
2022-08-19T18:40:17.578Z,101410.03
2022-08-19T18:43:05.023Z,101416.50
2022-08-19T18:45:50.770Z,101402.94
2022-08-19T18:48:36.742Z,101406.44
2022-08-19T18:51:05.767Z,101412.72
2022-08-19T18:53:37.813Z,101413.63
2022-08-19T18:56:10.051Z,101420.75
2022-08-19T18:58:39.991Z,101412.81
2022-08-19T19:01:13.797Z,101424.34
2022-08-19T19:03:45.686Z,101345.09
2022-08-19T19:06:18.838Z,101434.00
2022-08-19T19:08:48.282Z,101444.94
2022-08-19T19:11:24.009Z,101414.22
2022-08-19T19:13:52.992Z,101445.09
2022-08-19T19:16:24.469Z,101423.63
2022-08-19T19:18:53.511Z,101430.47
2022-08-19T19:21:23.212Z,101451.34
2022-08-19T19:23:52.522Z,101428.72
2022-08-19T19:26:22.729Z,101457.75
2022-08-19T19:28:51.907Z,101452.16
2022-08-19T19:31:23.875Z,101453.56
2022-08-19T19:33:52.178Z,101452.53
2022-08-19T19:36:21.188Z,101457.78
2022-08-19T19:38:49.835Z,101465.75
2022-08-19T19:41:24.090Z,101462.50
2022-08-19T19:44:09.842Z,101470.38
2022-08-19T19:46:43.473Z,101463.97
2022-08-19T19:49:12.998Z,101461.13
2022-08-19T19:51:41.964Z,101473.16
2022-08-19T19:54:14.613Z,101453.06
2022-08-19T19:56:45.530Z,101458.75
2022-08-19T19:59:14.252Z,101457.00
2022-08-19T20:01:46.909Z,101450.38
2022-08-19T20:04:16.165Z,101451.25
2022-08-19T20:06:46.312Z,101461.31
2022-08-19T20:09:19.652Z,101455.28
2022-08-19T20:11:53.726Z,101449.88
2022-08-19T20:14:27.016Z,101431.75
2022-08-19T20:16:57.501Z,101427.28
2022-08-19T20:19:27.827Z,101441.19
2022-08-19T20:21:57.469Z,101443.03
2022-08-19T20:24:28.500Z,101445.56
2022-08-19T20:26:58.379Z,101445.31
2022-08-19T20:29:38.323Z,101440.84
2022-08-19T20:32:08.766Z,101442.44
2022-08-19T20:34:37.184Z,101441.75
2022-08-19T20:37:05.887Z,101443.06
2022-08-19T20:39:34.374Z,101439.88
2022-08-19T20:42:05.352Z,101418.19
2022-08-19T20:44:35.611Z,101433.31
2022-08-19T20:47:04.337Z,101451.84
2022-08-19T20:49:33.544Z,101449.97
2022-08-19T20:52:03.718Z,101449.66
2022-08-19T20:54:32.267Z,101459.16
2022-08-19T20:57:03.598Z,101451.47
2022-08-19T20:59:33.518Z,101456.28
2022-08-19T21:02:02.056Z,101452.78
2022-08-19T21:04:31.064Z,101461.22
2022-08-19T21:06:59.443Z,101460.16
2022-08-19T21:09:27.792Z,101452.91
2022-08-19T21:11:56.190Z,101470.56
2022-08-19T21:14:24.420Z,101458.56
2022-08-19T21:16:54.491Z,101444.56
2022-08-19T21:19:24.107Z,101447.97
2022-08-19T21:21:53.295Z,101420.06
2022-08-19T21:24:21.749Z,101445.28
2022-08-19T21:26:55.769Z,101440.03
2022-08-19T21:29:24.035Z,101419.34
2022-08-19T21:31:53.935Z,101438.81
2022-08-19T21:34:22.305Z,101432.94
2022-08-19T21:36:50.690Z,101443.84
2022-08-19T21:39:19.023Z,101437.41
2022-08-19T21:41:47.288Z,101438.81
2022-08-19T21:44:15.621Z,101443.22
2022-08-19T21:46:43.981Z,101448.72
2022-08-19T21:49:14.100Z,101446.06
2022-08-19T21:51:43.212Z,101438.66
2022-08-19T21:54:14.137Z,101453.72
2022-08-19T21:56:43.081Z,101453.84
2022-08-19T21:59:11.461Z,101450.91
2022-08-19T22:01:39.886Z,101451.19
2022-08-19T22:04:08.204Z,101450.97
2022-08-19T22:06:37.939Z,101459.13
2022-08-19T22:09:06.438Z,101454.41
2022-08-19T22:11:34.887Z,101467.59
2022-08-19T22:14:04.323Z,101466.13
2022-08-19T22:16:33.694Z,101465.84
2022-08-19T22:19:02.127Z,101468.31
2022-08-19T22:21:40.792Z,101462.44
2022-08-19T22:24:11.515Z,101440.91
2022-08-19T22:26:39.884Z,101464.25
2022-08-19T22:29:08.703Z,101468.78
2022-08-19T22:31:37.612Z,101468.38
2022-08-19T22:34:07.602Z,101455.16
2022-08-19T22:36:35.984Z,101466.53
2022-08-19T22:39:05.403Z,101463.50
2022-08-19T22:41:35.110Z,101457.38
2022-08-19T22:44:03.903Z,101469.13
2022-08-19T22:46:33.646Z,101461.50
2022-08-19T22:49:02.011Z,101469.63
2022-08-19T22:51:48.444Z,101457.97
2022-08-19T22:54:17.156Z,101453.50
2022-08-19T22:56:46.833Z,101447.75
2022-08-19T22:59:15.210Z,101458.44
2022-08-19T23:01:43.545Z,101454.59
2022-08-19T23:04:12.223Z,101446.28
2022-08-19T23:06:42.192Z,101454.78
2022-08-19T23:09:11.408Z,101452.38
2022-08-19T23:11:47.611Z,101456.09
2022-08-19T23:14:17.585Z,101460.16
2022-08-19T23:16:51.030Z,101455.75
2022-08-19T23:19:20.882Z,101463.31
2022-08-19T23:21:50.166Z,101464.75
2022-08-19T23:24:18.479Z,101453.94
2022-08-19T23:27:05.516Z,101444.59
2022-08-19T23:29:51.646Z,101459.13
2022-08-19T23:32:21.418Z,101454.78
2022-08-19T23:34:50.086Z,101453.97
2022-08-19T23:37:18.672Z,101447.09
2022-08-19T23:39:46.960Z,101445.59
2022-08-19T23:42:16.736Z,101458.47
2022-08-19T23:44:52.301Z,101457.44
2022-08-19T23:47:22.199Z,101458.97
2022-08-19T23:49:50.676Z,101461.53
2022-08-19T23:52:19.424Z,101460.78
2022-08-19T23:54:47.743Z,101472.25
2022-08-19T23:57:17.411Z,101473.13
2022-08-19T23:59:46.239Z,101468.94
